createdAt,value
2024-03-01T00:02:11.699Z,2.42
2024-03-01T00:04:39.024Z,2.19
2024-03-01T00:07:06.385Z,2.06
2024-03-01T00:09:33.894Z,2.04
2024-03-01T00:12:01.030Z,2.21
2024-03-01T00:14:27.791Z,2.25
2024-03-01T00:16:54.569Z,2.29
2024-03-01T00:19:21.192Z,2.24
2024-03-01T00:21:48.023Z,2.20
2024-03-01T00:24:14.964Z,2.19
2024-03-01T00:26:48.002Z,2.17
2024-03-01T00:29:14.979Z,2.10
2024-03-01T00:31:41.700Z,2.01
2024-03-01T00:34:08.689Z,1.98
2024-03-01T00:36:35.373Z,2.16
2024-03-01T00:39:02.250Z,2.32
2024-03-01T00:41:28.988Z,2.30
2024-03-01T00:43:57.326Z,2.34
2024-03-01T00:46:24.100Z,2.52
2024-03-01T00:48:51.255Z,2.35
2024-03-01T00:51:18.616Z,2.15
2024-03-01T00:53:45.226Z,2.12
2024-03-01T00:56:13.140Z,2.11
2024-03-01T00:58:39.982Z,2.03
2024-03-01T01:01:06.784Z,2.04
2024-03-01T01:03:33.604Z,1.92
2024-03-01T01:06:01.746Z,1.91
2024-03-01T01:08:28.453Z,1.93
2024-03-01T01:10:55.557Z,1.74
2024-03-01T01:13:22.653Z,1.82
2024-03-01T01:15:49.443Z,1.88
2024-03-01T01:18:17.877Z,1.88
2024-03-01T01:20:45.968Z,1.88
2024-03-01T01:23:12.877Z,1.82
2024-03-01T01:25:39.543Z,1.80
2024-03-01T01:28:08.544Z,1.68
2024-03-01T01:30:35.232Z,1.60
2024-03-01T01:33:01.952Z,1.94
2024-03-01T01:35:28.706Z,2.27
2024-03-01T01:37:56.749Z,2.28
2024-03-01T01:40:23.844Z,2.08
2024-03-01T01:42:52.597Z,2.08
2024-03-01T01:45:19.232Z,1.85
2024-03-01T01:47:49.647Z,1.76
2024-03-01T01:50:17.969Z,1.65
2024-03-01T01:52:45.780Z,1.66
2024-03-01T01:55:12.785Z,1.68
2024-03-01T01:57:44.875Z,1.67
2024-03-01T02:00:14.648Z,1.58
2024-03-01T02:02:43.157Z,1.54
2024-03-01T02:05:10.060Z,1.57
2024-03-01T02:07:38.228Z,1.62
2024-03-01T02:10:18.450Z,1.60
2024-03-01T02:12:59.435Z,1.56
2024-03-01T02:15:27.589Z,1.55
2024-03-01T02:17:58.408Z,1.57
2024-03-01T02:20:28.023Z,1.59
2024-03-01T02:23:09.076Z,1.61
2024-03-01T02:25:35.850Z,1.54
2024-03-01T02:28:03.569Z,1.63
2024-03-01T02:30:30.323Z,1.70
2024-03-01T02:32:57.591Z,1.71
2024-03-01T02:35:24.637Z,1.68
2024-03-01T02:37:51.283Z,1.69
2024-03-01T02:40:18.036Z,1.67
2024-03-01T02:42:44.742Z,1.68
2024-03-01T02:45:11.486Z,1.79
2024-03-01T02:47:38.175Z,1.88
2024-03-01T02:50:08.457Z,2.11
2024-03-01T02:52:36.589Z,2.18
2024-03-01T02:55:04.102Z,2.20
2024-03-01T02:57:30.836Z,2.30
2024-03-01T02:59:58.669Z,2.36
2024-03-01T03:02:25.492Z,2.36
2024-03-01T03:04:52.984Z,2.44
2024-03-01T03:07:19.873Z,2.50
2024-03-01T03:09:46.533Z,2.58
2024-03-01T03:12:13.518Z,2.55
2024-03-01T03:14:40.586Z,2.71
2024-03-01T03:17:07.793Z,2.92
2024-03-01T03:19:35.766Z,3.05
2024-03-01T03:22:07.545Z,3.08
2024-03-01T03:24:34.417Z,2.94
2024-03-01T03:27:01.151Z,2.86
2024-03-01T03:29:27.789Z,2.81
2024-03-01T03:31:54.409Z,2.72
2024-03-01T03:34:21.133Z,2.63
2024-03-01T03:36:47.743Z,2.47
2024-03-01T03:39:16.278Z,2.39
2024-03-01T03:41:43.947Z,2.41
2024-03-01T03:44:10.999Z,2.36
2024-03-01T03:46:37.764Z,2.40
2024-03-01T03:49:04.776Z,2.32
2024-03-01T03:51:31.490Z,2.21
2024-03-01T03:53:58.284Z,2.12
2024-03-01T03:56:25.163Z,2.07
2024-03-01T03:58:52.630Z,2.06
2024-03-01T04:01:23.442Z,2.07
2024-03-01T04:03:50.590Z,2.03
2024-03-01T04:06:17.566Z,1.98
2024-03-01T04:08:44.325Z,2.02
2024-03-01T04:11:12.106Z,1.93
2024-03-01T04:13:39.031Z,1.95
2024-03-01T04:16:08.794Z,1.98
2024-03-01T04:18:35.741Z,1.91
2024-03-01T04:21:02.606Z,1.70
2024-03-01T04:23:29.203Z,1.52
2024-03-01T04:25:56.330Z,1.52
2024-03-01T04:28:29.001Z,1.48
2024-03-01T04:30:56.104Z,1.46
2024-03-01T04:33:22.868Z,1.42
2024-03-01T04:35:49.606Z,1.29
2024-03-01T04:38:16.428Z,1.25
2024-03-01T04:40:44.325Z,1.22
2024-03-01T04:43:11.241Z,1.08
2024-03-01T04:45:38.319Z,1.04
2024-03-01T04:48:05.691Z,0.97
2024-03-01T04:50:33.739Z,1.02
2024-03-01T04:53:00.355Z,1.01
2024-03-01T04:55:27.178Z,1.06
2024-03-01T04:57:53.825Z,1.09
2024-03-01T05:00:23.090Z,1.23
2024-03-01T05:02:49.976Z,1.35
2024-03-01T05:05:17.399Z,1.35
2024-03-01T05:07:49.642Z,1.36
2024-03-01T05:10:23.327Z,1.67
2024-03-01T05:12:50.768Z,2.05
2024-03-01T05:15:17.916Z,2.13
2024-03-01T05:17:46.748Z,2.29
2024-03-01T05:20:14.702Z,2.40
2024-03-01T05:22:44.008Z,2.52
2024-03-01T05:25:18.249Z,2.66
2024-03-01T05:27:47.658Z,2.87
2024-03-01T05:30:27.377Z,2.83
2024-03-01T05:33:04.335Z,2.93
2024-03-01T05:35:31.886Z,3.05
2024-03-01T05:38:00.285Z,3.04
2024-03-01T05:40:27.461Z,3.07
2024-03-01T05:42:55.280Z,3.10
2024-03-01T05:45:22.407Z,3.18
2024-03-01T05:47:49.375Z,3.23
2024-03-01T05:50:16.898Z,3.28
2024-03-01T05:52:45.443Z,3.34
2024-03-01T05:55:15.462Z,3.38
2024-03-01T05:57:42.942Z,3.55
2024-03-01T06:00:21.015Z,3.57
2024-03-01T06:02:49.084Z,3.62
2024-03-01T06:05:16.559Z,3.60
2024-03-01T06:07:44.279Z,3.67
2024-03-01T06:10:12.882Z,3.85
2024-03-01T06:12:39.740Z,3.86
2024-03-01T06:15:07.012Z,3.85
2024-03-01T06:17:34.451Z,3.87
2024-03-01T06:20:01.647Z,3.97
2024-03-01T06:22:32.292Z,4.00
2024-03-01T06:24:59.437Z,4.05
2024-03-01T06:27:26.322Z,4.12
2024-03-01T06:29:53.026Z,4.04
2024-03-01T06:32:19.789Z,4.19
2024-03-01T06:34:48.710Z,4.15
2024-03-01T06:37:16.376Z,4.20
2024-03-01T06:39:43.173Z,4.29
2024-03-01T06:42:10.063Z,4.36
2024-03-01T06:44:36.882Z,4.30
2024-03-01T06:47:08.452Z,4.31
2024-03-01T06:49:41.449Z,4.36
2024-03-01T06:52:08.381Z,4.39
2024-03-01T06:54:35.115Z,4.30
2024-03-01T06:57:01.957Z,4.43
2024-03-01T06:59:28.697Z,4.47
2024-03-01T07:01:55.662Z,4.53
2024-03-01T07:04:22.566Z,4.62
2024-03-01T07:06:49.378Z,4.68
2024-03-01T07:09:17.517Z,4.74
2024-03-01T07:11:44.262Z,4.74
2024-03-01T07:14:11.188Z,4.81
2024-03-01T07:16:37.889Z,4.91
2024-03-01T07:19:05.188Z,4.98
2024-03-01T07:21:32.017Z,4.99
2024-03-01T07:23:58.815Z,5.01
2024-03-01T07:26:25.617Z,5.09
2024-03-01T07:28:52.539Z,5.13
2024-03-01T07:31:19.423Z,5.26
2024-03-01T07:33:46.112Z,5.37
2024-03-01T07:36:14.015Z,5.68
2024-03-01T07:38:41.062Z,6.01
2024-03-01T07:41:07.967Z,6.24
2024-03-01T07:43:34.775Z,6.35
2024-03-01T07:46:01.872Z,6.43
2024-03-01T07:48:28.937Z,6.57
2024-03-01T07:50:56.009Z,6.76
2024-03-01T07:53:22.737Z,6.99
2024-03-01T07:55:49.583Z,7.10
2024-03-01T07:58:16.983Z,7.22
2024-03-01T08:00:43.976Z,7.28
2024-03-01T08:03:11.923Z,7.50
2024-03-01T08:05:40.728Z,7.62
2024-03-01T08:08:11.676Z,7.70
2024-03-01T08:10:43.230Z,7.79
2024-03-01T08:13:12.015Z,8.11
2024-03-01T08:15:39.889Z,8.40
2024-03-01T08:18:23.827Z,8.71
2024-03-01T08:21:05.363Z,8.86
2024-03-01T08:23:38.886Z,8.88
2024-03-01T08:26:07.273Z,8.98
2024-03-01T08:28:34.341Z,9.10
2024-03-01T08:31:07.167Z,9.13
2024-03-01T08:33:39.888Z,9.15
2024-03-01T08:36:08.363Z,9.30
2024-03-01T08:38:45.026Z,9.33
2024-03-01T08:41:12.596Z,9.40
2024-03-01T08:43:43.082Z,9.39
2024-03-01T08:46:24.570Z,8.83
2024-03-01T08:48:51.218Z,8.77
2024-03-01T08:51:19.000Z,8.48
2024-03-01T08:53:59.546Z,8.39
2024-03-01T08:56:32.483Z,8.41
2024-03-01T08:58:59.614Z,8.55
2024-03-01T09:01:53.015Z,8.54
2024-03-01T09:04:31.045Z,8.48
2024-03-01T09:07:07.183Z,8.04
2024-03-01T09:09:34.058Z,7.98
2024-03-01T09:12:00.865Z,7.97
2024-03-01T09:14:32.537Z,7.97
2024-03-01T09:17:02.435Z,8.18
2024-03-01T09:19:39.085Z,8.27
2024-03-01T09:22:06.090Z,8.40
2024-03-01T09:24:40.329Z,8.62
2024-03-01T09:27:23.938Z,8.84
2024-03-01T09:29:50.689Z,9.13
2024-03-01T09:32:17.791Z,9.32
2024-03-01T09:34:44.673Z,9.59
2024-03-01T09:37:17.157Z,9.64
2024-03-01T09:39:44.333Z,9.76
2024-03-01T09:42:30.237Z,9.81
2024-03-01T09:45:10.543Z,9.79
2024-03-01T09:47:58.970Z,10.14
2024-03-01T09:50:54.558Z,10.69
2024-03-01T09:53:30.237Z,10.91
2024-03-01T09:56:12.903Z,11.06
2024-03-01T09:59:14.267Z,11.45
2024-03-01T10:01:45.390Z,11.64
2024-03-01T10:04:51.618Z,11.93
2024-03-01T10:07:29.697Z,12.18
2024-03-01T10:10:02.637Z,12.14
2024-03-01T10:13:20.864Z,12.11
2024-03-01T10:16:06.261Z,11.98
2024-03-01T10:19:04.048Z,12.16
2024-03-01T10:21:46.085Z,12.19
2024-03-01T10:24:23.995Z,12.48
2024-03-01T10:27:04.740Z,12.60
2024-03-01T10:30:03.676Z,12.75
2024-03-01T10:32:52.762Z,12.82
2024-03-01T10:35:21.515Z,12.79
2024-03-01T10:38:04.233Z,12.89
2024-03-01T10:40:40.095Z,13.03
2024-03-01T10:43:12.817Z,13.15
2024-03-01T10:46:01.592Z,13.25
2024-03-01T10:48:38.653Z,13.55
2024-03-01T10:51:08.471Z,13.39
2024-03-01T10:53:42.941Z,13.36
2024-03-01T10:56:13.734Z,13.26
2024-03-01T10:58:47.095Z,13.36
2024-03-01T11:01:29.193Z,13.44
2024-03-01T11:04:29.741Z,13.11
2024-03-01T11:07:15.794Z,13.29
2024-03-01T11:10:03.360Z,13.32
2024-03-01T11:12:42.705Z,13.39
2024-03-01T11:15:16.761Z,13.39
2024-03-01T11:17:48.601Z,13.65
2024-03-01T11:20:42.974Z,13.72
2024-03-01T11:23:34.487Z,13.42
2024-03-01T11:26:09.023Z,13.43
2024-03-01T11:28:37.825Z,13.33
2024-03-01T11:31:09.504Z,13.32
2024-03-01T11:33:40.766Z,13.20
2024-03-01T11:36:29.486Z,13.20
2024-03-01T11:39:08.257Z,13.13
2024-03-01T11:41:47.297Z,13.08
2024-03-01T11:44:50.012Z,13.36
2024-03-01T11:47:41.263Z,13.52
2024-03-01T11:50:30.322Z,13.70
2024-03-01T11:53:10.465Z,13.68
2024-03-01T11:56:13.733Z,13.66
2024-03-01T11:58:49.545Z,13.70
2024-03-01T12:01:23.361Z,13.81
2024-03-01T12:04:17.603Z,13.70
2024-03-01T12:06:56.976Z,13.71
2024-03-01T12:09:35.916Z,13.68
2024-03-01T12:12:04.708Z,13.71
2024-03-01T12:14:41.757Z,13.81
2024-03-01T12:17:17.752Z,13.64
2024-03-01T12:19:54.950Z,13.71
2024-03-01T12:22:40.747Z,13.75
2024-03-01T12:25:07.626Z,13.57
2024-03-01T12:28:10.375Z,13.77
2024-03-01T12:30:38.859Z,13.74
2024-03-01T12:33:20.829Z,13.70
2024-03-01T12:36:05.546Z,13.78
2024-03-01T12:38:37.060Z,13.77
2024-03-01T12:41:25.781Z,13.55
2024-03-01T12:44:21.446Z,13.61
2024-03-01T12:47:02.804Z,13.64
2024-03-01T12:50:11.030Z,13.46
2024-03-01T12:52:58.647Z,13.33
2024-03-01T12:55:28.294Z,13.28
2024-03-01T12:58:17.369Z,13.23
2024-03-01T13:01:09.549Z,13.34
2024-03-01T13:03:55.228Z,13.49
2024-03-01T13:06:25.792Z,13.52
2024-03-01T13:09:04.560Z,13.64
2024-03-01T13:11:32.894Z,13.62
2024-03-01T13:14:12.526Z,13.59
2024-03-01T13:16:39.329Z,13.42
2024-03-01T13:19:07.030Z,13.50
2024-03-01T13:22:02.873Z,13.60
2024-03-01T13:25:04.787Z,13.70
2024-03-01T13:27:56.002Z,13.72
2024-03-01T13:30:25.561Z,13.53
2024-03-01T13:33:09.908Z,13.76
2024-03-01T13:35:39.821Z,13.79
2024-03-01T13:38:15.346Z,13.67
2024-03-01T13:40:51.813Z,13.67
2024-03-01T13:43:33.235Z,13.45
2024-03-01T13:46:13.186Z,13.65
2024-03-01T13:48:43.330Z,13.58
2024-03-01T13:51:10.717Z,13.68
2024-03-01T13:53:37.648Z,13.68
2024-03-01T13:56:06.003Z,13.65
2024-03-01T13:58:34.365Z,13.31
2024-03-01T14:01:04.820Z,13.05
2024-03-01T14:03:31.977Z,12.86
2024-03-01T14:06:00.939Z,12.85
2024-03-01T14:08:28.099Z,12.95
2024-03-01T14:10:56.618Z,13.02
2024-03-01T14:13:25.216Z,12.90
2024-03-01T14:16:01.759Z,12.84
2024-03-01T14:18:28.552Z,12.82
2024-03-01T14:20:55.948Z,12.94
2024-03-01T14:23:24.448Z,12.80
2024-03-01T14:25:51.331Z,12.83
2024-03-01T14:28:19.608Z,12.71
2024-03-01T14:30:47.225Z,12.78
2024-03-01T14:33:15.920Z,12.80
2024-03-01T14:35:42.967Z,12.90
2024-03-01T14:38:16.982Z,12.70
2024-03-01T14:41:01.797Z,12.53
2024-03-01T14:43:30.044Z,12.41
2024-03-01T14:46:00.262Z,12.41
2024-03-01T14:48:34.303Z,12.39
2024-03-01T14:51:06.126Z,12.33
2024-03-01T14:53:47.876Z,12.29
2024-03-01T14:56:14.768Z,12.25
2024-03-01T14:58:45.439Z,12.22
2024-03-01T15:01:13.980Z,12.07
2024-03-01T15:03:41.543Z,11.94
2024-03-01T15:06:09.839Z,11.92
2024-03-01T15:08:37.950Z,11.88
2024-03-01T15:11:10.925Z,11.91
2024-03-01T15:13:38.966Z,11.99
2024-03-01T15:16:07.033Z,11.88
2024-03-01T15:18:41.424Z,11.91
2024-03-01T15:21:11.996Z,11.86
2024-03-01T15:23:41.399Z,11.84
2024-03-01T15:26:09.764Z,11.84
2024-03-01T15:28:40.644Z,11.77
2024-03-01T15:31:10.457Z,11.69
2024-03-01T15:33:37.755Z,11.67
2024-03-01T15:36:06.015Z,11.66
2024-03-01T15:38:33.357Z,11.74
2024-03-01T15:41:01.532Z,11.62
2024-03-01T15:43:28.273Z,11.51
2024-03-01T15:45:55.059Z,11.59
2024-03-01T15:48:22.305Z,11.48
2024-03-01T15:50:49.128Z,11.38
2024-03-01T15:53:21.134Z,11.38
2024-03-01T15:55:58.400Z,11.33
2024-03-01T15:58:27.678Z,11.27
2024-03-01T16:00:56.214Z,11.22
2024-03-01T16:03:23.022Z,11.14
2024-03-01T16:05:49.891Z,11.11
2024-03-01T16:08:21.720Z,10.99
2024-03-01T16:10:53.666Z,10.88
2024-03-01T16:13:21.112Z,10.84
2024-03-01T16:15:59.479Z,10.75
2024-03-01T16:18:30.045Z,10.65
2024-03-01T16:20:58.275Z,10.54
2024-03-01T16:23:27.157Z,10.46
2024-03-01T16:25:54.674Z,10.47
2024-03-01T16:28:26.926Z,10.32
2024-03-01T16:31:01.674Z,10.24
2024-03-01T16:33:29.247Z,10.27
2024-03-01T16:36:17.220Z,10.16
2024-03-01T16:38:44.444Z,10.10
2024-03-01T16:41:33.214Z,10.06
2024-03-01T16:44:03.173Z,10.03
2024-03-01T16:46:42.593Z,10.00
2024-03-01T16:49:41.325Z,9.89
2024-03-01T16:52:14.623Z,9.82
2024-03-01T16:54:43.858Z,9.79
2024-03-01T16:57:16.220Z,9.74
2024-03-01T16:59:43.060Z,9.66
2024-03-01T17:02:41.966Z,9.66
2024-03-01T17:05:24.561Z,9.66
2024-03-01T17:07:51.615Z,9.65
2024-03-01T17:10:24.222Z,9.48
2024-03-01T17:12:55.882Z,9.44
2024-03-01T17:15:22.669Z,9.45
2024-03-01T17:17:50.845Z,9.50
2024-03-01T17:20:21.932Z,9.40
2024-03-01T17:22:49.393Z,9.46
2024-03-01T17:25:16.773Z,9.44
2024-03-01T17:27:43.609Z,9.46
2024-03-01T17:30:10.599Z,9.51
2024-03-01T17:32:37.466Z,9.42
2024-03-01T17:35:04.388Z,9.42
2024-03-01T17:37:31.075Z,9.38
2024-03-01T17:39:57.704Z,9.37
2024-03-01T17:42:24.283Z,9.29
2024-03-01T17:44:50.990Z,9.31
2024-03-01T17:47:17.566Z,9.22
2024-03-01T17:49:44.338Z,9.18
2024-03-01T17:52:11.181Z,9.19
2024-03-01T17:54:38.105Z,9.15
2024-03-01T17:57:06.459Z,9.13
2024-03-01T17:59:33.281Z,9.04
2024-03-01T18:02:00.592Z,8.94
2024-03-01T18:04:28.430Z,8.86
2024-03-01T18:06:55.100Z,8.79
2024-03-01T18:09:21.712Z,8.77
2024-03-01T18:11:48.769Z,8.71
2024-03-01T18:14:15.495Z,8.66
2024-03-01T18:16:42.456Z,8.59
2024-03-01T18:19:13.862Z,8.60
2024-03-01T18:21:40.749Z,8.56
2024-03-01T18:24:07.862Z,8.53
2024-03-01T18:26:38.032Z,8.51
2024-03-01T18:29:05.375Z,8.47
2024-03-01T18:31:32.162Z,8.38
2024-03-01T18:33:59.608Z,8.40
2024-03-01T18:36:26.196Z,8.31
2024-03-01T18:38:52.901Z,8.28
2024-03-01T18:41:19.586Z,8.25
2024-03-01T18:43:46.466Z,8.27
2024-03-01T18:46:13.789Z,8.16
2024-03-01T18:48:41.012Z,8.12
2024-03-01T18:51:07.870Z,8.07
2024-03-01T18:53:34.605Z,8.05
2024-03-01T18:56:01.357Z,8.06
2024-03-01T18:58:28.359Z,8.09
2024-03-01T19:01:06.591Z,8.08
2024-03-01T19:03:41.589Z,8.07
2024-03-01T19:06:09.690Z,8.07
2024-03-01T19:08:36.442Z,8.13
2024-03-01T19:11:03.183Z,8.12
2024-03-01T19:13:31.404Z,8.08
2024-03-01T19:15:58.191Z,8.09
2024-03-01T19:18:24.885Z,8.02
2024-03-01T19:20:51.501Z,7.93
2024-03-01T19:23:18.129Z,7.95
2024-03-01T19:25:47.201Z,7.88
2024-03-01T19:28:14.041Z,7.86
2024-03-01T19:30:40.611Z,7.81
2024-03-01T19:33:09.186Z,7.77
2024-03-01T19:35:35.934Z,7.73
2024-03-01T19:38:02.580Z,7.79
2024-03-01T19:40:29.504Z,7.79
2024-03-01T19:42:56.198Z,7.80
2024-03-01T19:45:22.758Z,7.73
2024-03-01T19:47:49.562Z,7.71
2024-03-01T19:50:16.529Z,7.61
2024-03-01T19:52:43.325Z,7.62
2024-03-01T19:55:09.995Z,7.49
2024-03-01T19:57:36.870Z,7.47
2024-03-01T20:00:08.880Z,7.42
2024-03-01T20:02:36.043Z,7.43
2024-03-01T20:05:02.760Z,7.45
2024-03-01T20:07:29.469Z,7.44
2024-03-01T20:09:56.268Z,7.39
2024-03-01T20:12:22.855Z,7.39
2024-03-01T20:14:49.644Z,7.43
2024-03-01T20:17:16.233Z,7.43
2024-03-01T20:19:42.991Z,7.47
2024-03-01T20:22:10.713Z,7.50
2024-03-01T20:24:37.702Z,7.52
2024-03-01T20:27:04.520Z,7.43
2024-03-01T20:29:31.370Z,7.34
2024-03-01T20:31:58.082Z,7.21
2024-03-01T20:34:27.246Z,7.21
2024-03-01T20:36:53.950Z,7.21
2024-03-01T20:39:20.678Z,7.29
2024-03-01T20:41:48.798Z,7.21
2024-03-01T20:44:15.409Z,7.23
2024-03-01T20:46:42.168Z,7.15
2024-03-01T20:49:08.932Z,7.12
2024-03-01T20:51:35.681Z,7.14
2024-03-01T20:54:02.326Z,7.21
2024-03-01T20:56:29.030Z,7.18
2024-03-01T20:58:55.675Z,7.23
2024-03-01T21:01:23.752Z,7.15
2024-03-01T21:03:50.500Z,6.96
2024-03-01T21:06:17.297Z,6.85
2024-03-01T21:08:44.016Z,6.71
2024-03-01T21:11:12.231Z,6.61
2024-03-01T21:13:39.606Z,6.56
2024-03-01T21:16:06.631Z,6.49
2024-03-01T21:18:33.426Z,6.43
2024-03-01T21:21:00.069Z,6.43
2024-03-01T21:23:27.445Z,6.40
2024-03-01T21:25:54.409Z,6.36
2024-03-01T21:28:21.614Z,6.31
2024-03-01T21:30:48.353Z,6.35
2024-03-01T21:33:15.399Z,6.40
2024-03-01T21:35:42.411Z,6.38
2024-03-01T21:38:09.420Z,6.44
2024-03-01T21:40:36.282Z,6.37
2024-03-01T21:43:03.458Z,6.37
2024-03-01T21:45:30.709Z,6.38
2024-03-01T21:47:57.718Z,6.35
2024-03-01T21:50:24.484Z,6.32
2024-03-01T21:52:51.627Z,6.27
2024-03-01T21:55:19.917Z,6.25
2024-03-01T21:57:46.978Z,6.24
2024-03-01T22:00:15.767Z,6.16
2024-03-01T22:02:42.650Z,6.19
2024-03-01T22:05:09.333Z,6.19
2024-03-01T22:07:37.282Z,6.16
2024-03-01T22:10:04.218Z,6.14
2024-03-01T22:12:31.258Z,6.14
2024-03-01T22:14:58.455Z,6.14
2024-03-01T22:17:25.691Z,6.10
2024-03-01T22:19:52.873Z,6.02
2024-03-01T22:22:19.800Z,5.95
2024-03-01T22:24:46.721Z,5.96
2024-03-01T22:27:14.874Z,5.99
2024-03-01T22:29:41.575Z,5.96
2024-03-01T22:32:08.227Z,5.88
2024-03-01T22:34:34.916Z,5.82
2024-03-01T22:37:01.642Z,5.75
2024-03-01T22:39:29.000Z,5.72
2024-03-01T22:41:55.795Z,5.71
2024-03-01T22:44:22.880Z,5.68
2024-03-01T22:46:49.521Z,5.69
2024-03-01T22:49:16.673Z,5.63
2024-03-01T22:51:43.416Z,5.60
2024-03-01T22:54:12.125Z,5.57
2024-03-01T22:56:38.901Z,5.50
2024-03-01T22:59:05.990Z,5.49
2024-03-01T23:01:33.019Z,5.49
2024-03-01T23:04:00.602Z,5.51
2024-03-01T23:06:28.036Z,5.51
2024-03-01T23:09:01.212Z,5.51
2024-03-01T23:11:37.486Z,5.57
2024-03-01T23:14:33.225Z,5.55
2024-03-01T23:16:59.875Z,5.52
2024-03-01T23:19:27.988Z,5.50
2024-03-01T23:21:54.672Z,5.47
2024-03-01T23:24:21.566Z,5.45
2024-03-01T23:26:48.280Z,5.46
2024-03-01T23:29:14.899Z,5.50
2024-03-01T23:31:41.818Z,5.50
2024-03-01T23:34:08.904Z,5.51
2024-03-01T23:36:35.722Z,5.53
2024-03-01T23:39:02.380Z,5.53
2024-03-01T23:41:29.248Z,5.51
2024-03-01T23:43:55.868Z,5.49
2024-03-01T23:46:22.644Z,5.47
2024-03-01T23:48:49.395Z,5.48
2024-03-01T23:51:16.122Z,5.51
2024-03-01T23:53:42.855Z,5.52
2024-03-01T23:56:09.598Z,5.53
2024-03-01T23:58:41.187Z,5.54
